Thunderbolt, Georgia
Current Conditions -  °F | °C
As of 8:45 PM on Saturday 20 Dec 2014 (Local Time) from KSVN Reporting Station
Overcast Overcast  
Wind Chill: 54°   Ceiling: 900
Heat Index: 54°   Visibility: 10mi
Dew Point: 52°   Wind: 7mph
Humidity: 94%   Direction: 20°NNE
Pressure: 30.17"   Gusts: NA
Location:  31.996°N, 80.9671°W
Report Text: KSVN 210145Z AUTO 02006KT 10SM BKN009 OVC013 12/11 A3017 RMK AO2 RAB0104E0123DZE0104B0123E0126 CIG 009V011
Loading
Personal Weather Stations






























Interactive Weather Map New forecast layout! Learn more

10-Day Weather Forecast

Advertisements
Track Severe Weather on mobile